Aeroporto :
LOGIN :

Iscrizione | Disclaimer

   EN    FR    IT 

 










Sommario :    VFR   VFR Marginale   IFR   IFR Intensivo   IFR Molto Intensivo
Visibilità : 
Base nubi : 
>= 8 km
>= 3000ft
5 / 8 km
1000 / 3000 ft
1500m / 5 km
500 / 1000 ft
800 / 1500m
200 / 500 ft
< 800m
< 200 ft
Simboli :   Temporali  Nebbia  Neve Forte  Precipitazioni Forti  Vento > 20 kt
SIGMETs :   Varie  Temporali  Ghiacco  Turbolenza  Onda orograficha  Ceneri Vulcaniche






- Altitudine del aeroporto : 670 ft
- Codice IATA : MSQ


UMMS - Minsk - 2

ULTIMO METAR :
  • 210030Z 13007MPS 9999 OVC016 01/M01 Q1033 R88/190055 NOSIG

METARs OBSOLETI :
  • 210000Z 12004G07MPS 9999 OVC016 01/M01 Q1033 R88/190055 NOSIG
  • 202330Z 12004G07MPS 9999 OVC025 01/M01 Q1033 R88/190055 NOSIG
  • 202300Z 12004G07MPS 090V150 9999 OVC012 00/M01 Q1033 R88/190055 NOSIG
  • 202230Z 12004G07MPS 9999 OVC011 00/M01 Q1033 R88/190055 NOSIG
  • 202200Z 12006MPS 9999 OVC010 00/M01 Q1033 R88/190055 NOSIG

TAF TAF UMMS
Valido dal 21 a 00 ore il 22 a 00 ore UTC


202303Z 2100/2124 11007G12MPS 5000 BR OVC004 TX03/2113Z TNM00/2101Z
TEMPO 2100/2106 13009G14MPS 1200 FZDZ OVC003
FM210600 13007G12MPS 6000 BKN005
TEMPO 2106/2124 15010G15MPS 1200 RASN BKN003



MetMap, La meteo Aeronautica in un colpo d'occhio ! - Copyright ORBIFLY Dicembre 2007 - Disclaimer

ORBIFLY MET'MAP TEAM :

Programmazione e sviluppo : Alexandra Zaïnal
Concezione e sviluppo : Baudouin d'Aumeries
Co-Programmazione e sviluppo : Marc-Olivier Méhu
Supporto tecnico e logistico : Manuel Goepfert
Aiuto per la traduzione : Arnaldo La Scala

Contatto : metmap@orbifly.com




FONTI E CREDITI :

   NOAA